Time,TemperatureF,DewpointF,PressureIn,WindDirection,WindDirectionDegrees,WindSpeedMPH,WindSpeedGustMPH,Humidity,HourlyPrecipIn,Conditions,Clouds,dailyrainin,SolarRadiationWatts/m^2,SoftwareType,DateUTC
2013-08-26 00:02:00,55.0,50.0,-100.00,ESE,109,2.0,4.0,84,0.00,,,0.07,0.000000,,2013-08-26 06:02:00,
2013-08-26 00:12:00,55.0,50.0,-100.00,ESE,109,2.0,4.0,84,0.00,,,0.07,0.000000,,2013-08-26 06:12:00,
2013-08-26 00:21:00,55.0,50.0,-100.00,ESE,109,2.0,4.0,84,0.00,,,0.07,0.000000,,2013-08-26 06:21:00,
2013-08-26 00:22:00,54.0,50.0,-100.00,ESE,105,3.0,4.0,87,0.01,,,0.08,0.000000,,2013-08-26 06:22:00,
2013-08-26 00:52:00,54.0,50.0,-100.00,ESE,105,3.0,4.0,87,0.01,,,0.08,0.000000,,2013-08-26 06:52:00,
2013-08-26 01:02:00,54.0,50.0,-100.00,ESE,105,3.0,4.0,87,0.01,,,0.08,0.000000,,2013-08-26 07:02:00,
2013-08-26 01:11:00,54.0,50.0,-100.00,ESE,105,3.0,4.0,87,0.01,,,0.08,0.000000,,2013-08-26 07:11:00,
2013-08-26 01:22:00,54.0,50.0,-100.00,ESE,102,1.0,5.0,86,0.00,,,0.05,0.000000,,2013-08-26 07:22:00,
2013-08-26 01:52:00,54.0,50.0,-100.00,ESE,102,1.0,5.0,86,0.00,,,0.05,0.000000,,2013-08-26 07:52:00,
2013-08-26 02:02:00,54.0,50.0,-100.00,ESE,102,1.0,5.0,86,0.00,,,0.05,0.000000,,2013-08-26 08:02:00,
2013-08-26 02:12:00,54.0,50.0,-100.00,ESE,102,1.0,5.0,86,0.00,,,0.05,0.000000,,2013-08-26 08:12:00,
2013-08-26 02:52:00,54.0,49.0,-100.00,East,80,1.0,4.0,83,0.00,,,0.03,0.000000,,2013-08-26 08:52:00,
2013-08-26 03:02:00,54.0,49.0,-100.00,East,80,1.0,4.0,83,0.00,,,0.03,0.000000,,2013-08-26 09:02:00,
2013-08-26 03:11:00,54.0,49.0,-100.00,East,80,1.0,4.0,83,0.00,,,0.03,0.000000,,2013-08-26 09:11:00,
2013-08-26 03:21:00,54.0,49.0,-100.00,East,80,1.0,4.0,83,0.00,,,0.03,0.000000,,2013-08-26 09:21:00,
2013-08-26 03:22:00,55.0,47.0,-100.00,South,176,0.0,3.0,75,0.00,,,0.03,0.000000,,2013-08-26 09:22:00,
2013-08-26 03:54:00,55.0,47.0,-100.00,South,176,0.0,3.0,75,0.00,,,0.03,0.000000,,2013-08-26 09:54:00,
2013-08-26 04:03:00,55.0,47.0,-100.00,South,176,0.0,3.0,75,0.00,,,0.03,0.000000,,2013-08-26 10:03:00,
2013-08-26 04:12:00,55.0,47.0,-100.00,South,176,0.0,3.0,75,0.00,,,0.03,0.000000,,2013-08-26 10:12:00,
2013-08-26 04:22:00,54.0,49.0,-100.00,SSW,203,1.0,2.0,83,0.00,,,0.02,0.000000,,2013-08-26 10:22:00,
2013-08-26 04:52:00,54.0,49.0,-100.00,SSW,203,1.0,2.0,83,0.00,,,0.02,0.000000,,2013-08-26 10:52:00,
2013-08-26 05:02:00,54.0,49.0,-100.00,SSW,203,1.0,2.0,83,0.00,,,0.02,0.000000,,2013-08-26 11:02:00,
2013-08-26 05:12:00,54.0,49.0,-100.00,SSW,203,1.0,2.0,83,0.00,,,0.02,0.000000,,2013-08-26 11:12:00,
2013-08-26 05:52:00,52.0,49.0,-100.00,SW,230,2.0,3.0,91,0.00,,,0.02,0.000000,,2013-08-26 11:52:00,
2013-08-26 06:01:00,52.0,49.0,-100.00,SW,230,2.0,3.0,91,0.00,,,0.02,0.000000,,2013-08-26 12:01:00,
2013-08-26 06:12:00,52.0,49.0,-100.00,SW,230,2.0,3.0,91,0.00,,,0.02,0.000000,,2013-08-26 12:12:00,
2013-08-26 06:21:00,52.0,49.0,-100.00,SW,230,2.0,3.0,91,0.00,,,0.02,0.000000,,2013-08-26 12:21:00,
2013-08-26 06:52:00,52.0,49.0,-100.00,SSE,166,2.0,3.0,91,0.00,,,0.02,0.000000,,2013-08-26 12:52:00,
2013-08-26 07:02:00,52.0,49.0,-100.00,SSE,166,2.0,3.0,91,0.00,,,0.02,0.000000,,2013-08-26 13:02:00,
2013-08-26 07:12:00,52.0,49.0,-100.00,SSE,166,2.0,3.0,91,0.00,,,0.02,0.000000,,2013-08-26 13:12:00,
2013-08-26 07:21:00,52.0,49.0,-100.00,SSE,166,2.0,3.0,91,0.00,,,0.02,0.000000,,2013-08-26 13:21:00,
2013-08-26 07:22:00,52.0,49.0,-100.00,East,98,0.0,3.0,90,0.00,,,0.02,12.000000,,2013-08-26 13:22:00,
2013-08-26 07:52:00,52.0,49.0,-100.00,East,98,0.0,3.0,90,0.00,,,0.02,12.000000,,2013-08-26 13:52:00,
2013-08-26 08:02:00,52.0,49.0,-100.00,East,98,0.0,3.0,90,0.00,,,0.02,12.000000,,2013-08-26 14:02:00,
2013-08-26 08:11:00,52.0,49.0,-100.00,East,98,0.0,3.0,90,0.00,,,0.02,12.000000,,2013-08-26 14:11:00,
2013-08-26 08:22:00,60.0,51.0,-100.00,NNE,27,1.0,3.0,72,0.00,,,0.02,187.000000,,2013-08-26 14:22:00,
2013-08-26 08:52:00,60.0,51.0,-100.00,NNE,27,1.0,3.0,72,0.00,,,0.02,187.000000,,2013-08-26 14:52:00,
2013-08-26 09:01:00,60.0,51.0,-100.00,NNE,27,1.0,3.0,72,0.00,,,0.02,187.000000,,2013-08-26 15:01:00,
2013-08-26 09:12:00,60.0,51.0,-100.00,NNE,27,1.0,3.0,72,0.00,,,0.02,187.000000,,2013-08-26 15:12:00,
2013-08-26 10:22:00,68.0,51.0,-100.00,NNW,331,3.0,4.0,54,-99.99,,,0.02,694.000000,,2013-08-26 16:22:00,
2013-08-26 10:59:00,68.0,51.0,-100.00,NNW,331,3.0,4.0,54,-99.99,,,0.02,694.000000,,2013-08-26 16:59:00,
2013-08-26 11:06:00,68.0,51.0,-100.00,NNW,331,3.0,4.0,54,-99.99,,,0.02,694.000000,,2013-08-26 17:06:00,
2013-08-26 11:12:00,68.0,51.0,-100.00,NNW,331,3.0,4.0,54,-99.99,,,0.02,694.000000,,2013-08-26 17:12:00,
2013-08-26 11:53:00,71.0,50.0,-100.00,NW,325,4.0,7.0,48,0.00,,,0.02,910.000000,,2013-08-26 17:53:00,
2013-08-26 12:01:00,71.0,50.0,-100.00,NW,325,4.0,7.0,48,0.00,,,0.02,910.000000,,2013-08-26 18:01:00,
2013-08-26 12:12:00,71.0,50.0,-100.00,NW,325,4.0,7.0,48,0.00,,,0.02,910.000000,,2013-08-26 18:12:00,
2013-08-26 12:21:00,71.0,50.0,-100.00,NW,325,4.0,7.0,48,0.00,,,0.02,910.000000,,2013-08-26 18:21:00,
2013-08-26 12:22:00,71.0,46.0,-100.00,NW,309,4.0,8.0,41,0.00,,,0.02,818.000000,,2013-08-26 18:22:00,
2013-08-26 12:52:00,71.0,46.0,-100.00,NW,309,4.0,8.0,41,0.00,,,0.02,818.000000,,2013-08-26 18:52:00,
2013-08-26 13:02:00,71.0,46.0,-100.00,NW,309,4.0,8.0,41,0.00,,,0.02,818.000000,,2013-08-26 19:02:00,
2013-08-26 13:11:00,71.0,46.0,-100.00,NW,309,4.0,8.0,41,0.00,,,0.02,818.000000,,2013-08-26 19:11:00,
2013-08-26 13:52:00,72.0,47.0,-100.00,NW,310,3.0,8.0,41,0.00,,,0.02,583.000000,,2013-08-26 19:52:00,
2013-08-26 14:02:00,72.0,47.0,-100.00,NW,310,3.0,8.0,41,0.00,,,0.02,583.000000,,2013-08-26 20:02:00,
2013-08-26 14:11:00,72.0,47.0,-100.00,NW,310,3.0,8.0,41,0.00,,,0.02,583.000000,,2013-08-26 20:11:00,
2013-08-26 14:21:00,72.0,47.0,-100.00,NW,310,3.0,8.0,41,0.00,,,0.02,583.000000,,2013-08-26 20:21:00,
2013-08-26 14:22:00,74.0,47.0,-100.00,NNW,339,3.0,6.0,39,0.00,,,0.02,617.000000,,2013-08-26 20:22:00,
2013-08-26 14:52:00,74.0,47.0,-100.00,NNW,339,3.0,6.0,39,0.00,,,0.02,617.000000,,2013-08-26 20:52:00,
2013-08-26 15:01:00,74.0,47.0,-100.00,NNW,339,3.0,6.0,39,0.00,,,0.02,617.000000,,2013-08-26 21:01:00,
2013-08-26 15:11:00,74.0,47.0,-100.00,NNW,339,3.0,6.0,39,0.00,,,0.02,617.000000,,2013-08-26 21:11:00,
2013-08-26 16:22:00,67.0,53.0,-100.00,East,80,2.0,7.0,60,-99.99,,,0.04,270.000000,,2013-08-26 22:22:00,
2013-08-26 17:12:00,67.0,53.0,-100.00,East,80,2.0,7.0,60,-99.99,,,0.04,270.000000,,2013-08-26 23:12:00,
2013-08-26 17:52:00,74.0,48.0,-100.00,NE,56,2.0,4.0,40,0.00,,,0.04,582.000000,,2013-08-26 23:52:00,
2013-08-26 18:01:00,74.0,48.0,-100.00,NE,56,2.0,4.0,40,0.00,,,0.04,582.000000,,2013-08-27 00:01:00,
2013-08-26 18:11:00,74.0,48.0,-100.00,NE,56,2.0,4.0,40,0.00,,,0.04,582.000000,,2013-08-27 00:11:00,
2013-08-26 18:21:00,74.0,48.0,-100.00,NE,56,2.0,4.0,40,0.00,,,0.04,582.000000,,2013-08-27 00:21:00,
2013-08-26 18:52:00,67.0,49.0,-100.00,WNW,302,2.0,5.0,52,0.00,,,0.04,259.000000,,2013-08-27 00:52:00,
2013-08-26 19:02:00,67.0,49.0,-100.00,WNW,302,2.0,5.0,52,0.00,,,0.04,259.000000,,2013-08-27 01:02:00,
2013-08-26 19:12:00,67.0,49.0,-100.00,WNW,302,2.0,5.0,52,0.00,,,0.04,259.000000,,2013-08-27 01:12:00,
2013-08-26 19:21:00,67.0,49.0,-100.00,WNW,302,2.0,5.0,52,0.00,,,0.04,259.000000,,2013-08-27 01:21:00,
2013-08-26 20:12:00,59.0,50.0,-100.00,WSW,246,4.0,9.0,72,0.01,,,0.05,11.000000,,2013-08-27 02:12:00,
2013-08-26 20:21:00,59.0,50.0,-100.00,WSW,246,4.0,9.0,72,0.01,,,0.05,11.000000,,2013-08-27 02:21:00,
2013-08-26 20:22:00,57.0,51.0,-100.00,North,354,0.0,6.0,80,0.00,,,0.05,2.000000,,2013-08-27 02:22:00,
2013-08-26 20:52:00,57.0,51.0,-100.00,North,354,0.0,6.0,80,0.00,,,0.05,2.000000,,2013-08-27 02:52:00,
2013-08-26 21:02:00,57.0,51.0,-100.00,North,354,0.0,6.0,80,0.00,,,0.05,2.000000,,2013-08-27 03:02:00,
2013-08-26 21:12:00,57.0,51.0,-100.00,North,354,0.0,6.0,80,0.00,,,0.05,2.000000,,2013-08-27 03:12:00,
2013-08-26 21:22:00,56.0,49.0,-100.00,SE,134,2.0,3.0,77,0.00,,,0.05,0.000000,,2013-08-27 03:22:00,
2013-08-26 21:58:00,56.0,49.0,-100.00,SE,134,2.0,3.0,77,0.00,,,0.05,0.000000,,2013-08-27 03:58:00,
2013-08-26 22:08:00,56.0,49.0,-100.00,SE,134,2.0,3.0,77,0.00,,,0.05,0.000000,,2013-08-27 04:08:00,
2013-08-26 22:18:00,56.0,49.0,-100.00,SE,134,2.0,3.0,77,0.00,,,0.05,0.000000,,2013-08-27 04:18:00,
2013-08-26 22:22:00,55.0,48.0,-100.00,SSW,198,3.0,4.0,78,0.00,,,0.04,0.000000,,2013-08-27 04:22:00,
2013-08-26 22:54:00,55.0,48.0,-100.00,SSW,198,3.0,4.0,78,0.00,,,0.04,0.000000,,2013-08-27 04:54:00,
2013-08-26 23:05:00,55.0,48.0,-100.00,SSW,198,3.0,4.0,78,0.00,,,0.04,0.000000,,2013-08-27 05:05:00,
2013-08-26 23:13:00,55.0,48.0,-100.00,SSW,198,3.0,4.0,78,0.00,,,0.04,0.000000,,2013-08-27 05:13:00,
2013-08-26 23:22:00,54.0,48.0,-100.00,ESE,104,2.0,4.0,81,0.00,,,0.04,0.000000,,2013-08-27 05:22:00,
2013-08-26 23:52:00,54.0,48.0,-100.00,ESE,104,2.0,4.0,81,0.00,,,0.04,0.000000,,2013-08-27 05:52:00,